createdAt,value
2019-02-08T00:00:58.678Z,99760.61
2019-02-08T00:03:32.717Z,99759.06
2019-02-08T00:06:13.556Z,99758.64
2019-02-08T00:08:48.468Z,99754.83
2019-02-08T00:11:23.564Z,99751.91
2019-02-08T00:14:01.437Z,99752.18
2019-02-08T00:16:34.788Z,99757.47
2019-02-08T00:19:08.461Z,99761.88
2019-02-08T00:21:41.245Z,99763.43
2019-02-08T00:24:14.606Z,99761.05
2019-02-08T00:26:50.387Z,99753.23
2019-02-08T00:29:23.241Z,99751.25
2019-02-08T00:31:56.359Z,99760.49
2019-02-08T00:34:29.176Z,99757.16
2019-02-08T00:37:02.440Z,99758.90
2019-02-08T00:39:36.412Z,99761.38
2019-02-08T00:42:27.081Z,99762.54
2019-02-08T00:45:30.950Z,99762.59
2019-02-08T00:48:07.325Z,99762.88
2019-02-08T00:50:40.115Z,99755.27
2019-02-08T00:53:16.402Z,99753.19
2019-02-08T00:55:51.801Z,99753.62
2019-02-08T00:58:26.758Z,99752.20
2019-02-08T01:01:01.236Z,99751.92
2019-02-08T01:03:38.608Z,99756.98
2019-02-08T01:06:16.025Z,99758.80
2019-02-08T01:08:52.487Z,99760.84
2019-02-08T01:11:25.339Z,99758.25
2019-02-08T01:13:59.585Z,99753.66
2019-02-08T01:16:33.388Z,99753.56
2019-02-08T01:19:07.540Z,99757.26
2019-02-08T01:21:40.309Z,99754.89
2019-02-08T01:24:12.987Z,99753.18
2019-02-08T01:26:46.925Z,99754.70
2019-02-08T01:29:20.166Z,99751.56
2019-02-08T01:31:56.134Z,99753.05
2019-02-08T01:34:30.538Z,99741.39
2019-02-08T01:37:03.202Z,99743.31
2019-02-08T01:39:38.069Z,99742.16
2019-02-08T01:42:10.815Z,99746.23
2019-02-08T01:44:46.009Z,99746.08
2019-02-08T01:47:20.759Z,99738.36
2019-02-08T01:49:54.559Z,99738.48
2019-02-08T01:52:27.655Z,99739.52
2019-02-08T01:55:00.282Z,99741.28
2019-02-08T01:57:33.911Z,99739.41
2019-02-08T02:00:20.644Z,99738.04
2019-02-08T02:02:54.387Z,99736.32
2019-02-08T02:05:28.618Z,99731.27
2019-02-08T02:08:05.116Z,99738.42
2019-02-08T02:10:43.697Z,99741.89
2019-02-08T02:13:17.191Z,99741.41
2019-02-08T02:15:50.446Z,99748.45
2019-02-08T02:18:23.863Z,99740.58
2019-02-08T02:20:57.191Z,99745.04
2019-02-08T02:23:31.243Z,99737.92
2019-02-08T02:26:06.086Z,99732.14
2019-02-08T02:28:42.643Z,99731.81
2019-02-08T02:31:15.586Z,99733.04
2019-02-08T02:33:48.264Z,99737.98
2019-02-08T02:36:21.532Z,99741.06
2019-02-08T02:38:54.450Z,99741.29
2019-02-08T02:41:28.329Z,99739.26
2019-02-08T02:44:01.735Z,99737.33
2019-02-08T02:46:36.960Z,99737.70
2019-02-08T02:49:09.727Z,99740.29
2019-02-08T02:51:45.162Z,99735.72
2019-02-08T02:54:18.436Z,99732.20
2019-02-08T02:56:51.116Z,99737.42
2019-02-08T02:59:24.419Z,99736.43
2019-02-08T03:01:59.057Z,99738.02
2019-02-08T03:04:32.404Z,99731.53
2019-02-08T03:07:05.390Z,99733.14
2019-02-08T03:09:39.524Z,99738.52
2019-02-08T03:12:12.089Z,99739.84
2019-02-08T03:14:44.807Z,99736.16
2019-02-08T03:17:17.730Z,99734.94
2019-02-08T03:19:52.129Z,99738.19
2019-02-08T03:22:25.793Z,99731.69
2019-02-08T03:24:59.492Z,99726.61
2019-02-08T03:27:32.198Z,99725.08
2019-02-08T03:30:10.582Z,99728.88
2019-02-08T03:32:44.655Z,99732.34
2019-02-08T03:35:24.130Z,99724.03
2019-02-08T03:37:57.849Z,99727.01
2019-02-08T03:40:32.748Z,99722.83
2019-02-08T03:43:08.115Z,99715.06
2019-02-08T03:45:42.973Z,99713.15
2019-02-08T03:48:17.003Z,99704.39
2019-02-08T03:50:50.120Z,99707.48
2019-02-08T03:53:22.855Z,99707.31
2019-02-08T03:55:58.702Z,99702.80
2019-02-08T03:58:33.050Z,99701.64
2019-02-08T04:01:09.471Z,99696.13
2019-02-08T04:03:43.507Z,99701.97
2019-02-08T04:06:16.196Z,99700.32
2019-02-08T04:08:50.488Z,99700.60
2019-02-08T04:11:24.617Z,99698.56
2019-02-08T04:13:58.262Z,99700.42
2019-02-08T04:16:32.989Z,99705.39
2019-02-08T04:19:06.035Z,99690.30
2019-02-08T04:21:40.374Z,99694.09
2019-02-08T04:24:13.383Z,99693.22
2019-02-08T04:26:46.499Z,99695.53
2019-02-08T04:29:20.508Z,99689.69
2019-02-08T04:31:55.252Z,99687.81
2019-02-08T04:34:28.805Z,99690.17
2019-02-08T04:37:01.428Z,99687.75
2019-02-08T04:39:40.021Z,99688.42
2019-02-08T04:42:13.412Z,99689.74
2019-02-08T04:44:47.353Z,99687.11
2019-02-08T04:47:20.619Z,99689.34
2019-02-08T04:49:53.347Z,99686.77
2019-02-08T04:52:27.497Z,99687.15
2019-02-08T04:55:01.570Z,99683.46
2019-02-08T04:57:36.353Z,99677.14
2019-02-08T05:00:20.260Z,99680.49
2019-02-08T05:02:54.511Z,99676.86
2019-02-08T05:05:29.754Z,99679.61
2019-02-08T05:08:04.781Z,99685.92
2019-02-08T05:10:37.644Z,99677.28
2019-02-08T05:13:11.221Z,99680.97
2019-02-08T05:15:45.608Z,99681.02
2019-02-08T05:18:19.835Z,99676.66
2019-02-08T05:20:54.525Z,99681.43
2019-02-08T05:23:27.590Z,99675.00
2019-02-08T05:26:00.400Z,99671.09
2019-02-08T05:28:34.082Z,99667.08
2019-02-08T05:31:08.020Z,99670.66
2019-02-08T05:33:40.551Z,99665.70
2019-02-08T05:36:13.352Z,99663.50
2019-02-08T05:38:49.302Z,99662.34
2019-02-08T05:41:21.994Z,99662.17
2019-02-08T05:43:54.670Z,99668.76
2019-02-08T05:46:27.913Z,99666.00
2019-02-08T05:49:00.931Z,99667.09
2019-02-08T05:51:34.119Z,99662.81
2019-02-08T05:54:07.197Z,99659.19
2019-02-08T05:56:39.873Z,99653.36
2019-02-08T05:59:13.568Z,99660.52
2019-02-08T06:01:47.571Z,99655.84
2019-02-08T06:04:20.243Z,99651.02
2019-02-08T06:06:52.875Z,99649.16
2019-02-08T06:09:25.706Z,99656.36
2019-02-08T06:11:58.378Z,99655.64
2019-02-08T06:14:31.394Z,99653.13
2019-02-08T06:17:05.415Z,99652.70
2019-02-08T06:19:37.975Z,99650.45
2019-02-08T06:22:10.647Z,99650.82
2019-02-08T06:24:44.747Z,99649.24
2019-02-08T06:27:17.809Z,99650.05
2019-02-08T06:29:50.673Z,99645.27
2019-02-08T06:32:23.361Z,99643.91
2019-02-08T06:34:56.305Z,99647.59
2019-02-08T06:37:29.193Z,99654.59
2019-02-08T06:40:01.946Z,99657.45
2019-02-08T06:42:34.733Z,99661.62
2019-02-08T06:45:09.066Z,99666.69
2019-02-08T06:47:47.357Z,99660.80
2019-02-08T06:50:22.726Z,99650.40
2019-02-08T06:52:55.772Z,99647.16
2019-02-08T06:55:29.077Z,99658.89
2019-02-08T06:58:16.482Z,99657.22
2019-02-08T07:01:09.554Z,99654.54
2019-02-08T07:03:47.575Z,99659.39
2019-02-08T07:06:33.152Z,99660.42
2019-02-08T07:09:35.211Z,99662.13
2019-02-08T07:12:28.265Z,99658.39
2019-02-08T07:15:14.976Z,99664.94
2019-02-08T07:18:02.130Z,99664.83
2019-02-08T07:20:47.087Z,99668.61
2019-02-08T07:23:43.091Z,99666.04
2019-02-08T07:26:48.234Z,99662.95
2019-02-08T07:29:26.685Z,99662.95
2019-02-08T07:32:19.043Z,99660.03
2019-02-08T07:35:03.339Z,99662.23
2019-02-08T07:37:44.823Z,99658.31
2019-02-08T07:40:30.122Z,99658.37
2019-02-08T07:43:14.666Z,99662.33
2019-02-08T07:45:56.455Z,99666.75
2019-02-08T07:48:54.636Z,99667.36
2019-02-08T07:51:45.083Z,99666.20
2019-02-08T07:54:23.029Z,99667.14
2019-02-08T07:57:06.537Z,99668.52
2019-02-08T07:59:46.157Z,99669.88
2019-02-08T08:02:43.676Z,99666.31
2019-02-08T08:05:41.089Z,99663.16
2019-02-08T08:08:23.792Z,99674.22
2019-02-08T08:11:05.845Z,99677.25
2019-02-08T08:13:49.894Z,99675.58
2019-02-08T08:16:35.834Z,99670.12
2019-02-08T08:19:35.501Z,99659.22
2019-02-08T08:22:33.725Z,99670.56
2019-02-08T08:25:16.747Z,99674.23
2019-02-08T08:28:12.720Z,99671.22
2019-02-08T08:30:58.588Z,99677.34
2019-02-08T08:33:49.535Z,99670.67
2019-02-08T08:37:13.809Z,99672.26
2019-02-08T08:40:32.031Z,99666.41
2019-02-08T08:43:46.561Z,99665.69
2019-02-08T08:47:31.490Z,99664.19
2019-02-08T08:51:07.384Z,99657.45
2019-02-08T08:54:56.521Z,99660.68
2019-02-08T08:58:05.585Z,99659.45
2019-02-08T09:01:37.526Z,99656.95
2019-02-08T09:05:18.509Z,99657.22
2019-02-08T09:08:44.743Z,99652.36
2019-02-08T09:12:13.387Z,99653.28
2019-02-08T09:15:33.768Z,99640.20
2019-02-08T09:18:59.394Z,99635.80
2019-02-08T09:22:59.124Z,99630.48
2019-02-08T09:26:33.706Z,99627.53
2019-02-08T09:30:14.004Z,99616.12
2019-02-08T09:33:28.343Z,99626.30
2019-02-08T09:36:56.609Z,99625.40
2019-02-08T09:40:37.035Z,99623.80
2019-02-08T09:43:56.979Z,99619.38
2019-02-08T09:47:15.165Z,99617.34
2019-02-08T09:51:01.732Z,99613.78
2019-02-08T09:54:47.342Z,99605.20
2019-02-08T09:58:15.604Z,99598.64
2019-02-08T10:02:02.881Z,99596.19
2019-02-08T10:05:11.812Z,99598.96
2019-02-08T10:08:58.270Z,99593.75
2019-02-08T10:12:24.159Z,99585.05
2019-02-08T10:15:39.740Z,99587.70
2019-02-08T10:18:58.386Z,99587.77
2019-02-08T10:22:09.071Z,99580.67
2019-02-08T10:25:17.122Z,99581.82
2019-02-08T10:28:31.020Z,99577.66
2019-02-08T10:31:44.822Z,99577.16
2019-02-08T10:34:56.007Z,99578.80
2019-02-08T10:38:05.069Z,99578.13
2019-02-08T10:41:30.725Z,99580.55
2019-02-08T10:45:17.209Z,99580.24
2019-02-08T10:48:51.075Z,99579.20
2019-02-08T10:52:04.612Z,99568.73
2019-02-08T10:55:38.625Z,99571.63
2019-02-08T10:59:17.102Z,99571.08
2019-02-08T11:02:36.590Z,99564.75
2019-02-08T11:05:55.086Z,99556.63
2019-02-08T11:09:12.520Z,99554.53
2019-02-08T11:12:24.621Z,99541.10
2019-02-08T11:15:43.896Z,99536.86
2019-02-08T11:19:09.921Z,99525.46
2019-02-08T11:21:43.466Z,99517.41
2019-02-08T11:24:18.683Z,99520.94
2019-02-08T11:26:52.807Z,99513.12
2019-02-08T11:29:31.102Z,99511.75
2019-02-08T11:32:06.135Z,99508.17
2019-02-08T11:34:38.781Z,99501.72
2019-02-08T11:37:12.825Z,99496.89
2019-02-08T11:39:46.804Z,99491.52
2019-02-08T11:42:20.582Z,99489.77
2019-02-08T11:44:53.072Z,99493.02
2019-02-08T11:47:26.206Z,99481.78
2019-02-08T11:49:59.169Z,99492.13
2019-02-08T11:52:32.966Z,99479.75
2019-02-08T11:55:06.851Z,99476.00
2019-02-08T11:57:41.015Z,99472.91
2019-02-08T12:00:29.900Z,99468.69
2019-02-08T12:03:05.668Z,99469.58
2019-02-08T12:05:39.092Z,99462.41
2019-02-08T12:08:12.391Z,99449.51
2019-02-08T12:10:45.954Z,99456.36
2019-02-08T12:13:19.468Z,99454.20
2019-02-08T12:15:53.744Z,99455.52
2019-02-08T12:18:27.498Z,99453.41
2019-02-08T12:21:00.189Z,99446.55
2019-02-08T12:23:33.007Z,99445.35
2019-02-08T12:26:07.632Z,99438.88
2019-02-08T12:28:44.424Z,99428.66
2019-02-08T12:31:17.734Z,99435.27
2019-02-08T12:33:52.319Z,99429.79
2019-02-08T12:36:25.710Z,99421.02
2019-02-08T12:39:02.906Z,99418.58
2019-02-08T12:41:35.978Z,99418.89
2019-02-08T12:44:09.395Z,99401.24
2019-02-08T12:46:44.175Z,99406.70
2019-02-08T12:49:20.542Z,99409.78
2019-02-08T12:51:54.586Z,99404.80
2019-02-08T12:54:27.368Z,99396.73
2019-02-08T12:57:00.796Z,99386.84
2019-02-08T12:59:33.923Z,99392.09
2019-02-08T13:02:06.659Z,99386.30
2019-02-08T13:04:39.948Z,99384.25
2019-02-08T13:07:14.808Z,99385.11
2019-02-08T13:09:48.277Z,99386.85
2019-02-08T13:12:23.375Z,99383.34
2019-02-08T13:14:57.974Z,99389.73
2019-02-08T13:17:31.800Z,99376.67
2019-02-08T13:20:10.743Z,99380.83
2019-02-08T13:22:49.200Z,99377.14
2019-02-08T13:25:22.335Z,99351.95
2019-02-08T13:27:57.064Z,99375.98
2019-02-08T13:30:32.246Z,99372.20
2019-02-08T13:33:06.146Z,99370.55
2019-02-08T13:35:39.258Z,99360.46
2019-02-08T13:38:12.942Z,99361.77
2019-02-08T13:40:47.620Z,99354.09
2019-02-08T13:43:21.758Z,99339.63
2019-02-08T13:45:54.548Z,99352.52
2019-02-08T13:48:27.252Z,99348.02
2019-02-08T13:51:00.720Z,99348.06
2019-02-08T13:53:33.462Z,99340.36
2019-02-08T13:56:06.299Z,99344.13
2019-02-08T13:58:39.453Z,99345.48
2019-02-08T14:01:12.252Z,99344.53
2019-02-08T14:03:45.213Z,99350.53
2019-02-08T14:06:18.878Z,99343.89
2019-02-08T14:09:04.452Z,99329.58
2019-02-08T14:11:37.310Z,99307.86
2019-02-08T14:14:16.615Z,99307.04
2019-02-08T14:16:50.009Z,99293.37
2019-02-08T14:19:23.335Z,99299.81
2019-02-08T14:21:56.813Z,99289.74
2019-02-08T14:24:29.607Z,99283.10
2019-02-08T14:27:28.446Z,99260.36
2019-02-08T14:30:04.357Z,99266.17
2019-02-08T14:32:39.199Z,99266.28
2019-02-08T14:35:15.630Z,99257.88
2019-02-08T14:37:48.579Z,99244.53
2019-02-08T14:40:31.746Z,99249.13
2019-02-08T14:43:12.492Z,99253.86
2019-02-08T14:45:45.337Z,99249.11
2019-02-08T14:48:21.398Z,99257.91
2019-02-08T14:51:08.145Z,99257.58
2019-02-08T14:53:44.548Z,99254.28
2019-02-08T14:56:22.366Z,99252.20
2019-02-08T14:58:56.115Z,99245.61
2019-02-08T15:01:31.276Z,99244.72
2019-02-08T15:04:07.145Z,99234.78
2019-02-08T15:06:41.249Z,99240.36
2019-02-08T15:09:14.590Z,99238.03
2019-02-08T15:11:49.242Z,99206.63
2019-02-08T15:14:24.883Z,99211.39
2019-02-08T15:17:00.002Z,99213.75
2019-02-08T15:19:35.858Z,99201.25
2019-02-08T15:22:09.861Z,99213.28
2019-02-08T15:24:47.442Z,99207.33
2019-02-08T15:27:24.382Z,99202.19
2019-02-08T15:29:58.137Z,99201.94
2019-02-08T15:32:32.213Z,99189.69
2019-02-08T15:35:07.495Z,99199.93
2019-02-08T15:37:46.939Z,99199.68
2019-02-08T15:40:49.795Z,99197.12
2019-02-08T15:43:24.762Z,99184.17
2019-02-08T15:46:07.018Z,99180.64
2019-02-08T15:48:40.633Z,99191.67
2019-02-08T15:51:14.272Z,99172.78
2019-02-08T15:53:48.687Z,99178.63
2019-02-08T15:56:22.258Z,99172.00
2019-02-08T15:58:56.565Z,99164.50
2019-02-08T16:01:31.695Z,99161.75
2019-02-08T16:04:05.473Z,99160.63
2019-02-08T16:06:43.786Z,99163.61
2019-02-08T16:09:21.795Z,99157.14
2019-02-08T16:11:58.066Z,99150.94
2019-02-08T16:14:31.212Z,99152.53
2019-02-08T16:17:04.592Z,99144.52
2019-02-08T16:19:37.590Z,99141.76
2019-02-08T16:22:10.316Z,99143.85
2019-02-08T16:24:43.975Z,99136.44
2019-02-08T16:27:19.140Z,99135.56
2019-02-08T16:29:52.538Z,99131.77
2019-02-08T16:32:26.035Z,99134.94
2019-02-08T16:35:00.593Z,99129.09
2019-02-08T16:37:34.953Z,99126.95
2019-02-08T16:40:11.613Z,99119.28
2019-02-08T16:42:46.923Z,99110.25
2019-02-08T16:45:27.520Z,99107.30
2019-02-08T16:48:02.037Z,99107.14
2019-02-08T16:50:36.865Z,99104.63
2019-02-08T16:53:11.617Z,99101.45
2019-02-08T16:55:45.179Z,99094.63
2019-02-08T16:58:18.422Z,99096.24
2019-02-08T17:00:54.519Z,99084.77
2019-02-08T17:03:27.252Z,99088.00
2019-02-08T17:06:00.250Z,99065.89
2019-02-08T17:08:33.629Z,99079.73
2019-02-08T17:11:06.717Z,99076.28
2019-02-08T17:13:39.586Z,99080.67
2019-02-08T17:16:13.017Z,99072.91
2019-02-08T17:18:49.329Z,99072.44
2019-02-08T17:21:24.547Z,99072.84
2019-02-08T17:23:57.815Z,99066.66
2019-02-08T17:26:32.983Z,99061.12
2019-02-08T17:29:07.782Z,99053.56
2019-02-08T17:31:42.554Z,99053.04
2019-02-08T17:34:20.630Z,99054.18
2019-02-08T17:37:03.844Z,99051.67
2019-02-08T17:39:45.204Z,99056.98
2019-02-08T17:42:20.032Z,99046.38
2019-02-08T17:44:56.688Z,99041.91
2019-02-08T17:47:29.469Z,99031.31
2019-02-08T17:50:05.344Z,99027.34
2019-02-08T17:52:39.638Z,99038.05
2019-02-08T17:55:19.409Z,99042.98
2019-02-08T17:58:03.009Z,99041.34
2019-02-08T18:00:47.899Z,99041.28
2019-02-08T18:03:25.175Z,99034.85
2019-02-08T18:06:13.724Z,99041.13
2019-02-08T18:08:52.511Z,99035.00
2019-02-08T18:11:31.004Z,99026.31
2019-02-08T18:14:07.924Z,99022.75
2019-02-08T18:16:41.679Z,99028.36
2019-02-08T18:19:16.678Z,99019.20
2019-02-08T18:21:52.856Z,99024.94
2019-02-08T18:24:28.155Z,99022.20
2019-02-08T18:27:01.831Z,99021.58
2019-02-08T18:29:39.207Z,99009.91
2019-02-08T18:32:15.454Z,99007.11
2019-02-08T18:34:52.458Z,99011.28
2019-02-08T18:37:26.499Z,99010.59
2019-02-08T18:40:00.840Z,99010.73
2019-02-08T18:42:35.639Z,98999.90
2019-02-08T18:45:16.762Z,98993.09
2019-02-08T18:47:51.389Z,98986.52
2019-02-08T18:50:48.988Z,98985.73
2019-02-08T18:53:23.219Z,98977.27
2019-02-08T18:56:00.707Z,98967.66
2019-02-08T18:58:36.022Z,98960.88
2019-02-08T19:01:11.042Z,98963.66
2019-02-08T19:03:47.963Z,98959.05
2019-02-08T19:06:21.676Z,98950.97
2019-02-08T19:09:01.718Z,98957.23
2019-02-08T19:11:40.003Z,98945.67
2019-02-08T19:14:17.249Z,98950.03
2019-02-08T19:16:51.271Z,98939.41
2019-02-08T19:19:27.666Z,98936.44
2019-02-08T19:22:07.705Z,98928.52
2019-02-08T19:24:41.448Z,98920.63
2019-02-08T19:27:19.807Z,98920.86
2019-02-08T19:29:56.569Z,98927.94
2019-02-08T19:32:29.976Z,98909.34
2019-02-08T19:35:05.659Z,98908.61
2019-02-08T19:37:38.722Z,98894.59
2019-02-08T19:40:18.476Z,98884.39
2019-02-08T19:42:55.413Z,98875.44
2019-02-08T19:45:29.867Z,98885.89
2019-02-08T19:48:10.806Z,98874.19
2019-02-08T19:50:48.381Z,98874.87
2019-02-08T19:53:23.480Z,98875.09
2019-02-08T19:55:57.197Z,98861.34
2019-02-08T19:58:34.548Z,98870.55
2019-02-08T20:01:12.143Z,98876.88
2019-02-08T20:03:45.411Z,98879.69
2019-02-08T20:06:19.829Z,98878.43
2019-02-08T20:08:52.743Z,98865.06
2019-02-08T20:11:28.775Z,98853.89
2019-02-08T20:14:03.935Z,98850.50
2019-02-08T20:16:40.414Z,98850.52
2019-02-08T20:19:15.857Z,98849.66
2019-02-08T20:21:50.611Z,98845.60
2019-02-08T20:24:25.353Z,98843.14
2019-02-08T20:26:59.750Z,98851.38
2019-02-08T20:29:38.459Z,98841.19
2019-02-08T20:32:11.134Z,98839.86
2019-02-08T20:34:48.560Z,98831.73
2019-02-08T20:37:29.376Z,98824.37
2019-02-08T20:40:10.476Z,98826.09
2019-02-08T20:42:45.071Z,98805.45
2019-02-08T20:45:24.582Z,98787.07
2019-02-08T20:48:03.502Z,98791.80
2019-02-08T20:50:39.599Z,98779.33
2019-02-08T20:53:15.449Z,98776.37
2019-02-08T20:55:52.298Z,98771.41
2019-02-08T20:58:28.346Z,98772.85
2019-02-08T21:01:03.276Z,98761.82
2019-02-08T21:03:38.610Z,98747.81
2019-02-08T21:06:14.688Z,98750.37
2019-02-08T21:08:50.753Z,98743.10
2019-02-08T21:11:27.365Z,98734.86
2019-02-08T21:14:04.798Z,98748.09
2019-02-08T21:16:42.173Z,98732.70
2019-02-08T21:19:23.377Z,98740.77
2019-02-08T21:21:57.023Z,98733.09
2019-02-08T21:24:31.818Z,98717.77
2019-02-08T21:27:09.243Z,98724.41
2019-02-08T21:29:43.840Z,98727.27
2019-02-08T21:32:20.292Z,98715.67
2019-02-08T21:34:56.477Z,98714.64
2019-02-08T21:37:37.158Z,98706.60
2019-02-08T21:40:14.839Z,98694.47
2019-02-08T21:42:49.520Z,98696.08
2019-02-08T21:45:28.112Z,98704.70
2019-02-08T21:48:01.334Z,98693.72
2019-02-08T21:50:34.083Z,98688.71
2019-02-08T21:53:09.239Z,98679.09
2019-02-08T21:55:43.071Z,98679.42
2019-02-08T21:58:18.019Z,98670.48
2019-02-08T22:00:54.549Z,98688.47
2019-02-08T22:03:28.746Z,98683.73
2019-02-08T22:06:09.302Z,98687.27
2019-02-08T22:08:43.122Z,98683.00
2019-02-08T22:11:18.762Z,98678.28
2019-02-08T22:13:54.847Z,98673.80
2019-02-08T22:16:29.592Z,98672.97
2019-02-08T22:19:04.206Z,98674.87
2019-02-08T22:21:36.957Z,98679.75
2019-02-08T22:24:12.232Z,98676.05
2019-02-08T22:26:44.959Z,98685.56
2019-02-08T22:29:19.543Z,98675.22
2019-02-08T22:31:56.366Z,98677.53
2019-02-08T22:34:32.390Z,98669.45
2019-02-08T22:37:06.025Z,98664.44
2019-02-08T22:39:41.388Z,98665.28
2019-02-08T22:42:15.735Z,98660.11
2019-02-08T22:44:50.628Z,98657.63
2019-02-08T22:47:24.215Z,98658.95
2019-02-08T22:49:57.802Z,98656.10
2019-02-08T22:52:36.749Z,98655.28
2019-02-08T22:55:16.006Z,98645.97
2019-02-08T22:57:53.648Z,98641.83
2019-02-08T23:01:04.790Z,98638.27
2019-02-08T23:03:39.255Z,98629.27
2019-02-08T23:06:13.771Z,98628.31
2019-02-08T23:08:51.586Z,98617.55
2019-02-08T23:11:25.349Z,98617.08
2019-02-08T23:13:58.875Z,98610.45
2019-02-08T23:16:32.851Z,98617.11
2019-02-08T23:19:08.804Z,98615.06
2019-02-08T23:21:41.646Z,98610.12
2019-02-08T23:24:15.807Z,98600.44
2019-02-08T23:26:48.616Z,98595.31
2019-02-08T23:29:21.432Z,98577.09
2019-02-08T23:31:58.007Z,98585.16
2019-02-08T23:34:32.018Z,98591.30
2019-02-08T23:37:05.872Z,98587.56
2019-02-08T23:39:42.585Z,98580.00
2019-02-08T23:42:15.686Z,98579.75
2019-02-08T23:44:51.749Z,98570.32
2019-02-08T23:47:27.131Z,98571.86
2019-02-08T23:50:01.554Z,98573.08
2019-02-08T23:52:38.044Z,98567.35
2019-02-08T23:55:11.477Z,98553.90
2019-02-08T23:57:44.356Z,98563.47
